Terminal Aerodrome Forecast
Issued by NWS

Home | Current Version | Previous Version | Text Only | Print | Product List | Glossary Off
Versions: 1 2 3 4 5 6 7 8 9 10 11 12 13 14

808
FTUS43 KICT 081740
TAFCNU
TAF
KCNU 081740Z 0818/0918 32013KT P6SM SKC
     FM090500 34007KT P6SM SKC
     FM091300 00000KT P6SM SCT080=

USA.gov is the U.S. government's official web portal to all federal, state and local government web resources and services.